createdAt,value
2019-03-25T00:01:18.727Z,3.40
2019-03-25T00:03:46.609Z,5.40
2019-03-25T00:06:14.157Z,4.00
2019-03-25T00:08:41.689Z,4.00
2019-03-25T00:11:09.425Z,4.40
2019-03-25T00:13:37.011Z,2.20
2019-03-25T00:16:04.615Z,2.60
2019-03-25T00:18:33.473Z,6.00
2019-03-25T00:21:01.030Z,0.80
2019-03-25T00:23:28.506Z,3.00
2019-03-25T00:25:56.117Z,4.00
2019-03-25T00:28:24.018Z,3.80
2019-03-25T00:30:51.501Z,3.00
2019-03-25T00:33:19.033Z,2.60
2019-03-25T00:35:46.797Z,1.00
2019-03-25T00:38:14.340Z,4.80
2019-03-25T00:40:41.873Z,3.60
2019-03-25T00:43:11.944Z,1.80
2019-03-25T00:45:39.733Z,3.00
2019-03-25T00:48:07.260Z,0.40
2019-03-25T00:50:34.807Z,0.80
2019-03-25T00:53:02.416Z,3.00
2019-03-25T00:55:33.213Z,3.00
2019-03-25T00:58:00.695Z,2.60
2019-03-25T01:00:28.370Z,3.00
2019-03-25T01:02:58.778Z,1.40
2019-03-25T01:05:26.571Z,4.40
2019-03-25T01:07:54.106Z,5.80
2019-03-25T01:10:21.653Z,6.60
2019-03-25T01:12:49.183Z,3.80
2019-03-25T01:15:18.844Z,6.80
2019-03-25T01:17:46.331Z,6.00
2019-03-25T01:20:13.922Z,1.40
2019-03-25T01:22:41.475Z,3.00
2019-03-25T01:25:09.340Z,4.00
2019-03-25T01:27:36.889Z,8.40
2019-03-25T01:30:04.431Z,4.00
2019-03-25T01:32:35.011Z,2.60
2019-03-25T01:35:02.874Z,3.80
2019-03-25T01:37:30.769Z,4.60
2019-03-25T01:39:58.336Z,4.00
2019-03-25T01:42:25.811Z,1.00
2019-03-25T01:44:53.673Z,3.60
2019-03-25T01:47:21.138Z,3.60
2019-03-25T01:49:48.633Z,6.00
2019-03-25T01:52:16.396Z,6.40
2019-03-25T01:54:43.881Z,3.00
2019-03-25T01:57:11.310Z,4.80
2019-03-25T01:59:39.133Z,3.20
2019-03-25T02:02:06.840Z,6.00
2019-03-25T02:04:34.331Z,1.00
2019-03-25T02:07:02.161Z,1.80
2019-03-25T02:09:29.642Z,1.80
2019-03-25T02:11:57.357Z,7.20
2019-03-25T02:14:24.838Z,4.00
2019-03-25T02:16:52.322Z,1.00
2019-03-25T02:19:20.095Z,4.60
2019-03-25T02:21:47.532Z,3.00
2019-03-25T02:24:15.052Z,3.00
2019-03-25T02:26:42.552Z,4.00
2019-03-25T02:29:10.291Z,3.60
2019-03-25T02:31:37.784Z,5.00
2019-03-25T02:34:05.285Z,4.80
2019-03-25T02:36:32.832Z,3.60
2019-03-25T02:39:00.597Z,4.80
2019-03-25T02:41:28.022Z,5.40
2019-03-25T02:43:55.505Z,3.00
2019-03-25T02:46:23.266Z,4.80
2019-03-25T02:48:50.742Z,3.40
2019-03-25T02:51:18.302Z,3.60
2019-03-25T02:53:45.809Z,3.00
2019-03-25T02:56:13.582Z,6.20
2019-03-25T02:58:41.420Z,4.40
2019-03-25T03:01:08.853Z,6.00
2019-03-25T03:03:36.422Z,5.60
2019-03-25T03:06:04.122Z,11.80
2019-03-25T03:08:31.692Z,7.00
2019-03-25T03:10:59.208Z,7.40
2019-03-25T03:13:26.764Z,7.00
2019-03-25T03:15:54.595Z,6.80
2019-03-25T03:18:22.157Z,6.00
2019-03-25T03:20:49.601Z,6.00
2019-03-25T03:23:17.409Z,6.40
2019-03-25T03:25:56.115Z,7.80
2019-03-25T03:28:14.156Z,10.00
2019-03-25T03:30:41.875Z,9.20
2019-03-25T03:33:09.389Z,7.80
2019-03-25T03:35:36.892Z,11.60
2019-03-25T03:38:04.416Z,9.00
2019-03-25T03:40:32.262Z,7.00
2019-03-25T03:42:59.746Z,6.60
2019-03-25T03:45:27.277Z,10.60
2019-03-25T03:47:54.808Z,6.00
2019-03-25T03:50:22.305Z,7.40
2019-03-25T03:52:49.835Z,8.00
2019-03-25T03:55:17.354Z,9.20
2019-03-25T03:57:45.075Z,8.20
2019-03-25T04:00:12.661Z,9.40
2019-03-25T04:02:40.292Z,7.40
2019-03-25T04:05:08.074Z,6.80
2019-03-25T04:07:35.694Z,8.60
2019-03-25T04:10:03.255Z,9.00
2019-03-25T04:12:30.870Z,4.80
2019-03-25T04:14:58.741Z,7.20
2019-03-25T04:17:26.314Z,7.40
2019-03-25T04:19:53.920Z,9.00
2019-03-25T04:22:21.753Z,8.40
2019-03-25T04:24:49.733Z,9.00
2019-03-25T04:27:17.330Z,12.20
2019-03-25T04:29:44.863Z,10.20
2019-03-25T04:32:12.687Z,5.20
2019-03-25T04:34:40.315Z,14.00
2019-03-25T04:37:07.867Z,10.00
2019-03-25T04:39:37.659Z,12.80
2019-03-25T04:42:05.192Z,11.60
2019-03-25T04:44:32.775Z,9.80
2019-03-25T04:47:00.246Z,12.80
2019-03-25T04:49:27.840Z,9.80
2019-03-25T04:51:55.395Z,6.40
2019-03-25T04:54:22.867Z,6.20
2019-03-25T04:56:53.021Z,10.20
2019-03-25T04:59:20.578Z,9.60
2019-03-25T05:01:48.190Z,8.80
2019-03-25T05:04:17.035Z,8.80
2019-03-25T05:06:44.657Z,12.00
2019-03-25T05:09:12.187Z,8.60
2019-03-25T05:11:39.703Z,7.80
2019-03-25T05:14:07.475Z,7.00
2019-03-25T05:16:35.062Z,4.00
2019-03-25T05:19:02.621Z,6.60
2019-03-25T05:21:30.473Z,4.00
2019-03-25T05:23:58.082Z,3.00
2019-03-25T05:26:25.640Z,3.60
2019-03-25T05:28:53.222Z,3.20
2019-03-25T05:31:21.082Z,3.40
2019-03-25T05:33:48.642Z,4.80
2019-03-25T05:36:16.538Z,4.00
2019-03-25T05:38:44.344Z,4.00
2019-03-25T05:41:11.937Z,6.60
2019-03-25T05:43:39.481Z,4.20
2019-03-25T05:46:07.303Z,2.60
2019-03-25T05:48:36.813Z,1.00
2019-03-25T05:51:04.271Z,3.00
2019-03-25T05:53:32.134Z,2.60
2019-03-25T05:55:59.760Z,4.00
2019-03-25T05:58:27.375Z,3.60
2019-03-25T06:00:55.292Z,3.20
2019-03-25T06:03:22.873Z,0.00
2019-03-25T06:05:50.438Z,4.20
2019-03-25T06:08:19.990Z,3.20
2019-03-25T06:10:47.874Z,1.00
2019-03-25T06:13:15.406Z,0.00
2019-03-25T06:15:46.077Z,0.20
2019-03-25T06:18:14.021Z,0.00
2019-03-25T06:20:41.647Z,0.40
2019-03-25T06:23:09.550Z,1.80
2019-03-25T06:25:37.103Z,0.20
2019-03-25T06:28:04.979Z,1.00
2019-03-25T06:30:32.821Z,1.00
2019-03-25T06:33:11.761Z,1.40
2019-03-25T06:35:29.766Z,1.00
2019-03-25T06:37:57.527Z,1.00
2019-03-25T06:40:25.011Z,0.00
2019-03-25T06:42:52.632Z,1.00
2019-03-25T06:45:20.432Z,0.80
2019-03-25T06:47:48.035Z,0.00
2019-03-25T06:50:15.665Z,0.60
2019-03-25T06:52:47.794Z,0.20
2019-03-25T06:55:17.188Z,0.00
2019-03-25T06:57:45.753Z,0.00
2019-03-25T07:00:13.285Z,0.00
2019-03-25T07:02:40.842Z,0.00
2019-03-25T07:05:08.742Z,0.00
2019-03-25T07:07:36.325Z,0.80
2019-03-25T07:10:04.171Z,0.40
2019-03-25T07:12:32.069Z,0.00
2019-03-25T07:14:59.656Z,0.80
2019-03-25T07:17:27.218Z,0.00
2019-03-25T07:19:54.829Z,0.00
2019-03-25T07:22:22.382Z,0.80
2019-03-25T07:24:49.941Z,0.60
2019-03-25T07:27:24.252Z,0.00
2019-03-25T07:29:51.767Z,0.60
2019-03-25T07:32:19.644Z,1.00
2019-03-25T07:34:47.277Z,0.00
2019-03-25T07:37:14.821Z,0.80
2019-03-25T07:39:43.083Z,5.00
2019-03-25T07:42:10.711Z,0.00
2019-03-25T07:44:38.288Z,3.80
2019-03-25T07:47:06.070Z,3.00
2019-03-25T07:49:33.696Z,1.00
2019-03-25T07:52:01.206Z,2.00
2019-03-25T07:54:29.266Z,3.80
2019-03-25T07:56:59.126Z,1.00
2019-03-25T07:59:26.694Z,3.60
2019-03-25T08:01:55.613Z,1.80
2019-03-25T08:04:23.120Z,1.00
2019-03-25T08:06:50.728Z,2.40
2019-03-25T08:09:18.601Z,1.80
2019-03-25T08:11:48.984Z,2.60
2019-03-25T08:14:16.577Z,0.80
2019-03-25T08:16:51.067Z,2.60
2019-03-25T08:19:18.591Z,0.00
2019-03-25T08:21:46.129Z,3.00
2019-03-25T08:24:16.509Z,3.00
2019-03-25T08:26:47.307Z,2.20
2019-03-25T08:29:13.341Z,3.00
2019-03-25T08:31:41.178Z,3.60
2019-03-25T08:34:08.638Z,4.40
2019-03-25T08:36:36.269Z,1.00
2019-03-25T08:39:04.541Z,1.00
2019-03-25T08:41:32.205Z,2.60
2019-03-25T08:43:59.662Z,3.20
2019-03-25T08:46:27.479Z,1.00
2019-03-25T08:48:55.090Z,0.00
2019-03-25T08:51:22.653Z,3.80
2019-03-25T08:53:50.508Z,2.60
2019-03-25T08:56:18.216Z,3.00
2019-03-25T08:58:48.774Z,2.60
2019-03-25T09:01:16.566Z,1.00
2019-03-25T09:03:44.182Z,0.00
2019-03-25T09:06:11.740Z,1.00
2019-03-25T09:08:39.671Z,0.80
2019-03-25T09:11:07.322Z,0.00
2019-03-25T09:13:34.839Z,0.00
2019-03-25T09:16:02.742Z,0.00
2019-03-25T09:18:30.358Z,0.00
2019-03-25T09:21:00.607Z,0.00
2019-03-25T09:23:28.396Z,0.00
2019-03-25T09:25:56.186Z,0.00
2019-03-25T09:28:24.743Z,0.00
2019-03-25T09:30:52.679Z,0.00
2019-03-25T09:33:22.094Z,0.00
2019-03-25T09:35:50.434Z,0.00
2019-03-25T09:38:18.236Z,0.00
2019-03-25T09:40:45.768Z,0.00
2019-03-25T09:43:13.369Z,0.20
2019-03-25T09:45:41.165Z,0.40
2019-03-25T09:48:08.782Z,1.00
2019-03-25T09:50:37.391Z,1.00
2019-03-25T09:53:04.924Z,1.00
2019-03-25T09:55:32.389Z,3.00
2019-03-25T09:58:00.241Z,3.00
2019-03-25T10:00:27.875Z,2.20
2019-03-25T10:02:55.501Z,0.60
2019-03-25T10:05:23.356Z,1.00
2019-03-25T10:07:50.998Z,0.80
2019-03-25T10:10:20.984Z,2.60
2019-03-25T10:12:49.034Z,0.80
2019-03-25T10:15:19.142Z,1.00
2019-03-25T10:17:46.957Z,1.80
2019-03-25T10:20:14.837Z,0.00
2019-03-25T10:22:44.884Z,0.60
2019-03-25T10:25:14.832Z,1.00
2019-03-25T10:27:42.698Z,1.00
2019-03-25T10:30:10.298Z,1.00
2019-03-25T10:32:37.929Z,0.40
2019-03-25T10:35:05.775Z,0.00
2019-03-25T10:37:33.385Z,0.00
2019-03-25T10:40:00.953Z,3.00
2019-03-25T10:42:28.850Z,0.00
2019-03-25T10:44:56.489Z,0.00
2019-03-25T10:47:24.087Z,0.00
2019-03-25T10:49:53.329Z,0.00
2019-03-25T10:52:21.035Z,0.00
2019-03-25T10:54:48.895Z,0.00
2019-03-25T10:57:16.945Z,4.00
2019-03-25T10:59:44.498Z,0.00
2019-03-25T11:02:16.130Z,0.00
2019-03-25T11:04:41.513Z,0.00
2019-03-25T11:07:11.960Z,0.00
2019-03-25T11:09:39.477Z,0.20
2019-03-25T11:12:07.386Z,0.00
2019-03-25T11:14:35.367Z,0.00
2019-03-25T11:17:02.908Z,0.00
2019-03-25T11:19:33.519Z,0.40
2019-03-25T11:22:01.162Z,0.00
2019-03-25T11:24:28.851Z,0.00
2019-03-25T11:26:56.695Z,0.00
2019-03-25T11:29:24.562Z,0.00
2019-03-25T11:31:52.122Z,0.00
2019-03-25T11:34:19.935Z,0.40
2019-03-25T11:36:47.527Z,0.00
2019-03-25T11:39:17.028Z,0.00
2019-03-25T11:41:44.583Z,0.00
2019-03-25T11:44:12.222Z,0.00
2019-03-25T11:46:39.817Z,0.00
2019-03-25T11:49:07.571Z,0.00
2019-03-25T11:51:37.054Z,0.00
2019-03-25T11:54:04.644Z,0.00
2019-03-25T11:56:32.473Z,0.00
2019-03-25T11:59:00.127Z,0.00
2019-03-25T12:01:30.010Z,1.80
2019-03-25T12:04:00.637Z,0.00
2019-03-25T12:06:31.152Z,0.00
2019-03-25T12:08:58.761Z,0.00
2019-03-25T12:11:26.655Z,0.00
2019-03-25T12:13:56.070Z,1.00
2019-03-25T12:16:23.686Z,0.00
2019-03-25T12:18:53.793Z,0.00
2019-03-25T12:21:23.950Z,0.00
2019-03-25T12:23:51.637Z,0.00
2019-03-25T12:26:19.578Z,0.00
2019-03-25T12:28:51.363Z,0.00
2019-03-25T12:31:20.853Z,0.00
2019-03-25T12:33:48.995Z,0.00
2019-03-25T12:36:16.613Z,0.00
2019-03-25T12:38:47.146Z,0.00
2019-03-25T12:41:14.989Z,0.00
2019-03-25T12:43:49.816Z,0.00
2019-03-25T12:46:17.490Z,0.00
2019-03-25T12:48:45.422Z,0.00
2019-03-25T12:51:14.408Z,0.60
2019-03-25T12:53:44.391Z,0.00
2019-03-25T12:56:12.097Z,1.00
2019-03-25T12:58:49.955Z,0.00
2019-03-25T13:01:17.459Z,0.00
2019-03-25T13:03:47.860Z,0.00
2019-03-25T13:06:15.482Z,0.00
2019-03-25T13:08:43.367Z,0.00
2019-03-25T13:11:10.994Z,0.00
2019-03-25T13:13:38.528Z,0.00
2019-03-25T13:16:06.323Z,0.00
2019-03-25T13:18:35.003Z,0.00
2019-03-25T13:21:02.619Z,0.00
2019-03-25T13:23:31.390Z,0.00
2019-03-25T13:25:58.933Z,0.00
2019-03-25T13:28:28.858Z,0.00
2019-03-25T13:30:59.446Z,0.00
2019-03-25T13:33:29.806Z,0.00
2019-03-25T13:35:57.412Z,0.00
2019-03-25T13:38:25.299Z,0.00
2019-03-25T13:40:52.890Z,0.00
2019-03-25T13:43:20.377Z,0.00
2019-03-25T13:45:48.238Z,0.00
2019-03-25T13:48:19.263Z,0.00
2019-03-25T13:50:46.805Z,0.00
2019-03-25T13:53:14.604Z,0.00
2019-03-25T13:55:44.920Z,0.00
2019-03-25T13:58:12.499Z,1.00
2019-03-25T14:00:42.241Z,0.00
2019-03-25T14:03:09.707Z,1.00
2019-03-25T14:05:37.269Z,1.00
2019-03-25T14:08:05.175Z,0.00
2019-03-25T14:10:32.748Z,0.00
2019-03-25T14:13:00.394Z,0.00
2019-03-25T14:15:32.115Z,0.00
2019-03-25T14:18:00.601Z,0.00
2019-03-25T14:20:28.242Z,1.00
2019-03-25T14:22:56.793Z,0.00
2019-03-25T14:25:24.331Z,0.00
2019-03-25T14:27:51.940Z,0.00
2019-03-25T14:30:19.840Z,3.00
2019-03-25T14:32:49.087Z,0.00
2019-03-25T14:35:16.669Z,0.00
2019-03-25T14:37:44.490Z,0.60
2019-03-25T14:40:12.084Z,0.00
2019-03-25T14:42:39.664Z,0.00
2019-03-25T14:45:07.577Z,0.00
2019-03-25T14:47:35.145Z,0.00
2019-03-25T14:50:05.396Z,0.00
2019-03-25T14:52:34.318Z,0.20
2019-03-25T14:55:02.117Z,0.00
2019-03-25T14:57:31.783Z,0.40
2019-03-25T15:00:00.965Z,0.00
2019-03-25T15:02:28.843Z,0.00
2019-03-25T15:04:56.419Z,0.00
2019-03-25T15:07:27.568Z,0.00
2019-03-25T15:09:55.345Z,0.00
2019-03-25T15:12:23.966Z,0.00
2019-03-25T15:14:51.796Z,0.00
2019-03-25T15:17:19.339Z,0.20
2019-03-25T15:19:51.011Z,0.00
2019-03-25T15:22:21.708Z,0.00
2019-03-25T15:24:49.169Z,0.00
2019-03-25T15:27:16.654Z,0.00
2019-03-25T15:29:44.479Z,0.00
2019-03-25T15:32:12.097Z,0.00
2019-03-25T15:34:39.657Z,0.00
2019-03-25T15:37:09.691Z,0.00
2019-03-25T15:39:46.351Z,0.00
2019-03-25T15:42:07.637Z,0.00
2019-03-25T15:44:36.034Z,0.00
2019-03-25T15:47:03.552Z,0.00
2019-03-25T15:49:31.505Z,0.60
2019-03-25T15:52:03.880Z,0.20
2019-03-25T15:54:33.633Z,0.00
2019-03-25T15:57:01.266Z,1.00
2019-03-25T15:59:29.141Z,0.00
2019-03-25T16:02:00.334Z,0.00
2019-03-25T16:04:26.590Z,0.00
2019-03-25T16:06:54.496Z,0.00
2019-03-25T16:09:23.759Z,0.00
2019-03-25T16:11:51.368Z,1.80
2019-03-25T16:14:19.715Z,0.00
2019-03-25T16:16:47.320Z,0.00
2019-03-25T16:19:14.869Z,1.00
2019-03-25T16:21:42.858Z,0.00
2019-03-25T16:24:12.149Z,1.00
2019-03-25T16:26:41.474Z,0.00
2019-03-25T16:29:09.696Z,0.00
2019-03-25T16:31:37.457Z,0.00
2019-03-25T16:34:05.018Z,0.00
2019-03-25T16:36:35.708Z,1.00
2019-03-25T16:39:04.369Z,0.00
2019-03-25T16:41:32.011Z,0.00
2019-03-25T16:44:06.120Z,0.00
2019-03-25T16:46:31.201Z,0.00
2019-03-25T16:49:01.638Z,0.00
2019-03-25T16:51:29.692Z,0.00
2019-03-25T16:53:57.320Z,0.00
2019-03-25T16:56:27.683Z,0.00
2019-03-25T16:58:55.719Z,0.00
2019-03-25T17:01:23.286Z,0.00
2019-03-25T17:03:51.328Z,0.00
2019-03-25T17:06:23.878Z,0.40
2019-03-25T17:08:51.169Z,0.00
2019-03-25T17:11:18.714Z,0.00
2019-03-25T17:13:51.166Z,0.00
2019-03-25T17:16:18.642Z,0.00
2019-03-25T17:18:49.634Z,0.40
2019-03-25T17:21:24.753Z,0.00
2019-03-25T17:23:53.418Z,0.40
2019-03-25T17:26:22.481Z,0.00
2019-03-25T17:28:57.160Z,0.00
2019-03-25T17:31:24.875Z,1.40
2019-03-25T17:33:54.881Z,1.00
2019-03-25T17:36:28.090Z,0.00
2019-03-25T17:38:55.665Z,0.20
2019-03-25T17:41:26.954Z,1.00
2019-03-25T17:43:54.824Z,0.00
2019-03-25T17:46:22.409Z,0.00
2019-03-25T17:48:52.724Z,0.00
2019-03-25T17:51:20.546Z,0.00
2019-03-25T17:53:47.997Z,1.00
2019-03-25T17:56:15.606Z,0.00
2019-03-25T17:58:43.464Z,0.00
2019-03-25T18:01:32.305Z,1.00
2019-03-25T18:03:56.291Z,3.00
2019-03-25T18:06:23.910Z,1.40
2019-03-25T18:08:53.950Z,0.00
2019-03-25T18:11:22.922Z,2.60
2019-03-25T18:13:50.583Z,2.20
2019-03-25T18:16:22.397Z,0.00
2019-03-25T18:18:51.677Z,0.00
2019-03-25T18:21:20.391Z,0.00
2019-03-25T18:23:47.991Z,0.40
2019-03-25T18:26:15.721Z,1.00
2019-03-25T18:28:43.920Z,0.00
2019-03-25T18:31:13.078Z,1.00
2019-03-25T18:33:40.867Z,0.00
2019-03-25T18:36:08.473Z,0.20
2019-03-25T18:38:40.220Z,0.40
2019-03-25T18:41:05.550Z,0.00
2019-03-25T18:43:33.130Z,1.00
2019-03-25T18:46:00.717Z,1.00
2019-03-25T18:48:28.640Z,0.20
2019-03-25T18:50:59.227Z,1.00
2019-03-25T18:53:27.164Z,0.80
2019-03-25T18:56:02.420Z,1.00
2019-03-25T18:58:32.678Z,4.00
2019-03-25T19:01:00.271Z,0.80
2019-03-25T19:03:47.912Z,0.00
2019-03-25T19:06:15.468Z,0.00
2019-03-25T19:08:43.394Z,1.00
2019-03-25T19:11:11.646Z,1.00
2019-03-25T19:13:39.198Z,1.40
2019-03-25T19:16:15.931Z,1.00
2019-03-25T19:18:39.258Z,1.00
2019-03-25T19:21:06.880Z,1.00
2019-03-25T19:23:37.886Z,3.00
2019-03-25T19:26:05.418Z,2.60
2019-03-25T19:28:34.120Z,4.00
2019-03-25T19:31:02.009Z,3.40
2019-03-25T19:33:35.101Z,2.20
2019-03-25T19:36:10.480Z,3.00
2019-03-25T19:38:38.307Z,3.00
2019-03-25T19:41:05.947Z,0.00
2019-03-25T19:43:33.561Z,2.20
2019-03-25T19:46:01.410Z,1.00
2019-03-25T19:48:29.066Z,3.00
2019-03-25T19:50:56.607Z,1.00
2019-03-25T19:53:24.506Z,1.00
2019-03-25T19:55:57.106Z,0.00
2019-03-25T19:58:24.711Z,1.40
2019-03-25T20:00:52.494Z,2.20
2019-03-25T20:03:20.034Z,1.00
2019-03-25T20:05:47.670Z,3.00
2019-03-25T20:08:15.535Z,3.00
2019-03-25T20:10:43.219Z,1.40
2019-03-25T20:13:10.792Z,1.00
2019-03-25T20:15:45.946Z,1.00
2019-03-25T20:18:08.273Z,3.00
2019-03-25T20:20:42.999Z,3.00
2019-03-25T20:23:13.567Z,4.00
2019-03-25T20:25:43.966Z,4.00
2019-03-25T20:28:11.563Z,3.00
2019-03-25T20:30:39.422Z,1.00
2019-03-25T20:33:09.794Z,3.40
2019-03-25T20:35:37.324Z,0.00
2019-03-25T20:38:05.146Z,2.60
2019-03-25T20:40:34.475Z,4.40
2019-03-25T20:43:02.050Z,6.00
2019-03-25T20:45:30.004Z,3.20
2019-03-25T20:48:00.073Z,1.00
2019-03-25T20:50:27.693Z,2.20
2019-03-25T20:52:57.806Z,3.00
2019-03-25T20:55:25.356Z,1.00
2019-03-25T20:57:52.939Z,3.00
2019-03-25T21:00:26.811Z,0.00
2019-03-25T21:02:54.404Z,1.00
2019-03-25T21:05:24.765Z,0.20
2019-03-25T21:07:52.694Z,1.00
2019-03-25T21:10:20.262Z,1.00
2019-03-25T21:12:47.845Z,3.80
2019-03-25T21:15:15.678Z,0.40
2019-03-25T21:17:43.266Z,0.60
2019-03-25T21:20:15.079Z,3.00
2019-03-25T21:23:04.575Z,0.20
2019-03-25T21:25:32.101Z,1.20
2019-03-25T21:27:59.887Z,3.00
2019-03-25T21:30:29.832Z,1.40
2019-03-25T21:32:58.762Z,1.40
2019-03-25T21:35:26.709Z,1.00
2019-03-25T21:37:54.399Z,2.20
2019-03-25T21:40:22.168Z,0.20
2019-03-25T21:42:49.938Z,0.80
2019-03-25T21:45:17.634Z,1.00
2019-03-25T21:47:45.178Z,0.60
2019-03-25T21:50:13.080Z,0.40
2019-03-25T21:52:43.953Z,0.00
2019-03-25T21:55:11.578Z,0.20
2019-03-25T21:57:42.607Z,3.20
2019-03-25T22:00:11.351Z,1.00
2019-03-25T22:02:38.938Z,0.00
2019-03-25T22:05:08.821Z,1.00
2019-03-25T22:07:39.975Z,2.60
2019-03-25T22:10:07.532Z,0.20
2019-03-25T22:12:41.578Z,0.20
2019-03-25T22:15:10.386Z,2.20
2019-03-25T22:17:41.053Z,1.00
2019-03-25T22:20:08.901Z,0.00
2019-03-25T22:22:39.630Z,0.20
2019-03-25T22:25:07.329Z,3.00
2019-03-25T22:27:41.130Z,0.80
2019-03-25T22:30:04.417Z,1.00
2019-03-25T22:32:31.997Z,1.00
2019-03-25T22:35:02.609Z,0.20
2019-03-25T22:37:34.187Z,0.00
2019-03-25T22:39:59.375Z,0.40
2019-03-25T22:42:27.256Z,1.00
2019-03-25T22:44:54.844Z,0.00
2019-03-25T22:47:22.418Z,1.00
2019-03-25T22:49:50.286Z,0.80
2019-03-25T22:52:17.820Z,0.00
2019-03-25T22:54:46.664Z,0.00
2019-03-25T22:57:14.881Z,0.20
2019-03-25T22:59:42.512Z,0.80
2019-03-25T23:02:10.450Z,0.80
2019-03-25T23:04:38.289Z,1.00
2019-03-25T23:09:56.365Z,1.00
2019-03-25T23:12:23.881Z,2.20
2019-03-25T23:14:51.751Z,0.80
2019-03-25T23:17:19.636Z,1.00
2019-03-25T23:19:47.259Z,0.40
2019-03-25T23:22:14.864Z,0.60
2019-03-25T23:24:44.889Z,0.80
2019-03-25T23:27:12.479Z,1.40
2019-03-25T23:29:40.038Z,1.00
2019-03-25T23:32:07.855Z,1.00
2019-03-25T23:34:35.536Z,3.00
2019-03-25T23:37:03.196Z,1.80
2019-03-25T23:39:31.058Z,1.00
2019-03-25T23:41:58.543Z,3.20
2019-03-25T23:44:26.171Z,1.00
2019-03-25T23:46:53.991Z,1.00
2019-03-25T23:49:21.953Z,1.00
2019-03-25T23:51:49.440Z,1.00
2019-03-25T23:54:16.992Z,1.00
2019-03-25T23:56:44.909Z,1.00
2019-03-25T23:59:12.517Z,1.00
